sensor_id;sensor_type;location;lat;lon;timestamp;P1;durP1;ratioP1;P2;durP2;ratioP2
58260;SDS011;44058;52.898;6.502;2024-02-26T00:02:23;10.52;;;7.43;;
58260;SDS011;44058;52.898;6.502;2024-02-26T00:04:51;9.05;;;7.45;;
58260;SDS011;44058;52.898;6.502;2024-02-26T00:07:18;10.43;;;7.90;;
58260;SDS011;44058;52.898;6.502;2024-02-26T00:09:45;10.40;;;8.27;;
58260;SDS011;44058;52.898;6.502;2024-02-26T00:12:12;11.35;;;8.07;;
58260;SDS011;44058;52.898;6.502;2024-02-26T00:14:39;10.70;;;8.07;;
58260;SDS011;44058;52.898;6.502;2024-02-26T00:17:07;10.52;;;7.63;;
58260;SDS011;44058;52.898;6.502;2024-02-26T00:19:35;9.85;;;7.45;;
58260;SDS011;44058;52.898;6.502;2024-02-26T00:22:02;10.32;;;7.93;;
58260;SDS011;44058;52.898;6.502;2024-02-26T00:24:29;10.40;;;8.55;;
58260;SDS011;44058;52.898;6.502;2024-02-26T00:26:56;11.27;;;8.02;;
58260;SDS011;44058;52.898;6.502;2024-02-26T00:29:23;12.48;;;9.15;;
58260;SDS011;44058;52.898;6.502;2024-02-26T00:31:51;12.30;;;8.55;;
58260;SDS011;44058;52.898;6.502;2024-02-26T00:34:19;10.60;;;8.20;;
58260;SDS011;44058;52.898;6.502;2024-02-26T00:36:46;10.27;;;8.30;;
58260;SDS011;44058;52.898;6.502;2024-02-26T00:39:14;11.73;;;8.70;;
58260;SDS011;44058;52.898;6.502;2024-02-26T00:41:41;12.90;;;9.65;;
58260;SDS011;44058;52.898;6.502;2024-02-26T00:44:08;11.18;;;8.70;;
58260;SDS011;44058;52.898;6.502;2024-02-26T00:46:35;13.73;;;9.75;;
58260;SDS011;44058;52.898;6.502;2024-02-26T00:49:02;12.30;;;9.05;;
58260;SDS011;44058;52.898;6.502;2024-02-26T00:51:29;13.05;;;9.15;;
58260;SDS011;44058;52.898;6.502;2024-02-26T00:53:56;11.73;;;9.10;;
58260;SDS011;44058;52.898;6.502;2024-02-26T00:56:23;13.07;;;9.50;;
58260;SDS011;44058;52.898;6.502;2024-02-26T00:58:51;11.82;;;9.02;;
58260;SDS011;44058;52.898;6.502;2024-02-26T01:01:18;12.15;;;8.38;;
58260;SDS011;44058;52.898;6.502;2024-02-26T01:03:45;11.50;;;9.05;;
58260;SDS011;44058;52.898;6.502;2024-02-26T01:06:13;13.35;;;9.68;;
58260;SDS011;44058;52.898;6.502;2024-02-26T01:08:40;12.50;;;9.20;;
58260;SDS011;44058;52.898;6.502;2024-02-26T01:11:07;12.95;;;9.50;;
58260;SDS011;44058;52.898;6.502;2024-02-26T01:13:34;12.93;;;9.65;;
58260;SDS011;44058;52.898;6.502;2024-02-26T01:16:01;12.75;;;9.25;;
58260;SDS011;44058;52.898;6.502;2024-02-26T01:18:29;13.15;;;9.38;;
58260;SDS011;44058;52.898;6.502;2024-02-26T01:20:56;11.77;;;9.10;;
58260;SDS011;44058;52.898;6.502;2024-02-26T01:23:23;12.85;;;9.40;;
58260;SDS011;44058;52.898;6.502;2024-02-26T01:25:51;14.07;;;9.40;;
58260;SDS011;44058;52.898;6.502;2024-02-26T01:28:19;13.32;;;9.63;;
58260;SDS011;44058;52.898;6.502;2024-02-26T01:30:46;13.50;;;9.90;;
58260;SDS011;44058;52.898;6.502;2024-02-26T01:33:14;14.30;;;10.00;;
58260;SDS011;44058;52.898;6.502;2024-02-26T01:35:41;12.85;;;9.23;;
58260;SDS011;44058;52.898;6.502;2024-02-26T01:38:09;14.40;;;9.63;;
58260;SDS011;44058;52.898;6.502;2024-02-26T01:40:36;15.88;;;10.52;;
58260;SDS011;44058;52.898;6.502;2024-02-26T01:43:04;16.02;;;9.95;;
58260;SDS011;44058;52.898;6.502;2024-02-26T01:45:31;15.70;;;10.48;;
58260;SDS011;44058;52.898;6.502;2024-02-26T01:47:57;13.88;;;10.00;;
58260;SDS011;44058;52.898;6.502;2024-02-26T01:50:25;20.20;;;11.10;;
58260;SDS011;44058;52.898;6.502;2024-02-26T01:52:53;16.60;;;10.70;;
58260;SDS011;44058;52.898;6.502;2024-02-26T01:55:22;17.63;;;11.48;;
58260;SDS011;44058;52.898;6.502;2024-02-26T01:57:51;16.60;;;10.70;;
58260;SDS011;44058;52.898;6.502;2024-02-26T02:00:22;16.17;;;9.77;;
58260;SDS011;44058;52.898;6.502;2024-02-26T02:03:04;16.85;;;10.77;;
58260;SDS011;44058;52.898;6.502;2024-02-26T02:05:32;18.25;;;11.25;;
58260;SDS011;44058;52.898;6.502;2024-02-26T02:08:00;17.77;;;11.43;;
58260;SDS011;44058;52.898;6.502;2024-02-26T02:10:29;17.73;;;11.50;;
58260;SDS011;44058;52.898;6.502;2024-02-26T02:12:56;20.67;;;12.65;;
58260;SDS011;44058;52.898;6.502;2024-02-26T02:15:24;18.75;;;11.50;;
58260;SDS011;44058;52.898;6.502;2024-02-26T02:17:52;19.40;;;12.23;;
58260;SDS011;44058;52.898;6.502;2024-02-26T02:20:33;20.85;;;13.27;;
58260;SDS011;44058;52.898;6.502;2024-02-26T02:23:01;21.67;;;13.35;;
58260;SDS011;44058;52.898;6.502;2024-02-26T02:25:28;20.20;;;12.75;;
58260;SDS011;44058;52.898;6.502;2024-02-26T02:27:55;22.42;;;14.00;;
58260;SDS011;44058;52.898;6.502;2024-02-26T02:30:27;21.77;;;13.95;;
58260;SDS011;44058;52.898;6.502;2024-02-26T02:32:55;23.77;;;14.90;;
58260;SDS011;44058;52.898;6.502;2024-02-26T02:35:22;23.05;;;14.80;;
58260;SDS011;44058;52.898;6.502;2024-02-26T02:37:52;22.52;;;14.73;;
58260;SDS011;44058;52.898;6.502;2024-02-26T02:40:21;23.60;;;15.05;;
58260;SDS011;44058;52.898;6.502;2024-02-26T02:42:48;22.30;;;15.38;;
58260;SDS011;44058;52.898;6.502;2024-02-26T02:45:15;22.30;;;15.20;;
58260;SDS011;44058;52.898;6.502;2024-02-26T02:47:43;25.75;;;16.17;;
58260;SDS011;44058;52.898;6.502;2024-02-26T02:50:10;25.00;;;17.00;;
58260;SDS011;44058;52.898;6.502;2024-02-26T02:52:37;23.63;;;15.60;;
58260;SDS011;44058;52.898;6.502;2024-02-26T02:55:04;22.52;;;15.32;;
58260;SDS011;44058;52.898;6.502;2024-02-26T02:57:31;25.02;;;15.82;;
58260;SDS011;44058;52.898;6.502;2024-02-26T02:59:59;25.33;;;16.10;;
58260;SDS011;44058;52.898;6.502;2024-02-26T03:02:26;23.23;;;15.30;;
58260;SDS011;44058;52.898;6.502;2024-02-26T03:04:55;24.75;;;16.25;;
58260;SDS011;44058;52.898;6.502;2024-02-26T03:07:22;24.83;;;17.35;;
58260;SDS011;44058;52.898;6.502;2024-02-26T03:09:51;24.40;;;16.35;;
58260;SDS011;44058;52.898;6.502;2024-02-26T03:12:19;23.30;;;16.13;;
58260;SDS011;44058;52.898;6.502;2024-02-26T03:14:46;26.30;;;16.85;;
58260;SDS011;44058;52.898;6.502;2024-02-26T03:17:13;24.85;;;16.13;;
58260;SDS011;44058;52.898;6.502;2024-02-26T03:19:40;22.48;;;16.02;;
58260;SDS011;44058;52.898;6.502;2024-02-26T03:22:07;24.75;;;16.25;;
58260;SDS011;44058;52.898;6.502;2024-02-26T03:24:34;24.42;;;16.55;;
58260;SDS011;44058;52.898;6.502;2024-02-26T03:27:01;23.60;;;16.00;;
58260;SDS011;44058;52.898;6.502;2024-02-26T03:29:29;24.52;;;15.38;;
58260;SDS011;44058;52.898;6.502;2024-02-26T03:31:56;22.85;;;15.27;;
58260;SDS011;44058;52.898;6.502;2024-02-26T03:34:24;24.23;;;15.38;;
58260;SDS011;44058;52.898;6.502;2024-02-26T03:36:52;22.27;;;15.82;;
58260;SDS011;44058;52.898;6.502;2024-02-26T03:39:21;20.88;;;15.18;;
58260;SDS011;44058;52.898;6.502;2024-02-26T03:41:48;20.70;;;14.40;;
58260;SDS011;44058;52.898;6.502;2024-02-26T03:44:15;22.70;;;14.48;;
58260;SDS011;44058;52.898;6.502;2024-02-26T03:46:42;21.23;;;14.93;;
58260;SDS011;44058;52.898;6.502;2024-02-26T03:49:10;20.40;;;13.85;;
58260;SDS011;44058;52.898;6.502;2024-02-26T03:51:37;18.98;;;13.73;;
58260;SDS011;44058;52.898;6.502;2024-02-26T03:54:04;17.13;;;12.50;;
58260;SDS011;44058;52.898;6.502;2024-02-26T03:56:32;17.73;;;12.55;;
58260;SDS011;44058;52.898;6.502;2024-02-26T03:58:59;17.23;;;12.20;;
58260;SDS011;44058;52.898;6.502;2024-02-26T04:01:28;15.00;;;11.23;;
58260;SDS011;44058;52.898;6.502;2024-02-26T04:03:55;14.98;;;11.02;;
58260;SDS011;44058;52.898;6.502;2024-02-26T04:06:22;19.85;;;12.05;;
58260;SDS011;44058;52.898;6.502;2024-02-26T04:08:51;15.38;;;11.35;;
58260;SDS011;44058;52.898;6.502;2024-02-26T04:11:19;15.38;;;11.15;;
58260;SDS011;44058;52.898;6.502;2024-02-26T04:13:47;16.63;;;10.88;;
58260;SDS011;44058;52.898;6.502;2024-02-26T04:18:44;14.02;;;10.73;;
58260;SDS011;44058;52.898;6.502;2024-02-26T04:21:11;14.00;;;10.35;;
58260;SDS011;44058;52.898;6.502;2024-02-26T04:23:39;13.55;;;10.05;;
58260;SDS011;44058;52.898;6.502;2024-02-26T04:26:06;13.77;;;9.95;;
58260;SDS011;44058;52.898;6.502;2024-02-26T04:28:34;13.05;;;9.30;;
58260;SDS011;44058;52.898;6.502;2024-02-26T04:31:02;12.75;;;9.10;;
58260;SDS011;44058;52.898;6.502;2024-02-26T04:33:30;12.73;;;9.75;;
58260;SDS011;44058;52.898;6.502;2024-02-26T04:35:58;13.57;;;10.18;;
58260;SDS011;44058;52.898;6.502;2024-02-26T04:38:26;11.52;;;9.35;;
58260;SDS011;44058;52.898;6.502;2024-02-26T04:40:55;11.48;;;8.57;;
58260;SDS011;44058;52.898;6.502;2024-02-26T04:43:22;10.18;;;8.25;;
58260;SDS011;44058;52.898;6.502;2024-02-26T04:45:52;9.80;;;7.30;;
58260;SDS011;44058;52.898;6.502;2024-02-26T04:48:21;10.35;;;7.90;;
58260;SDS011;44058;52.898;6.502;2024-02-26T04:50:52;8.88;;;7.75;;
58260;SDS011;44058;52.898;6.502;2024-02-26T04:53:20;9.27;;;7.17;;
58260;SDS011;44058;52.898;6.502;2024-02-26T04:55:47;8.88;;;7.60;;
58260;SDS011;44058;52.898;6.502;2024-02-26T04:58:14;9.38;;;7.85;;
58260;SDS011;44058;52.898;6.502;2024-02-26T05:00:41;8.27;;;7.28;;
58260;SDS011;44058;52.898;6.502;2024-02-26T05:03:08;10.38;;;7.20;;
58260;SDS011;44058;52.898;6.502;2024-02-26T05:05:39;11.38;;;7.47;;
58260;SDS011;44058;52.898;6.502;2024-02-26T05:08:07;13.00;;;8.30;;
58260;SDS011;44058;52.898;6.502;2024-02-26T05:10:33;10.63;;;7.82;;
58260;SDS011;44058;52.898;6.502;2024-02-26T05:13:05;9.95;;;7.18;;
58260;SDS011;44058;52.898;6.502;2024-02-26T05:15:32;9.60;;;6.95;;
58260;SDS011;44058;52.898;6.502;2024-02-26T05:17:59;9.65;;;6.90;;
58260;SDS011;44058;52.898;6.502;2024-02-26T05:20:26;9.73;;;7.07;;
58260;SDS011;44058;52.898;6.502;2024-02-26T05:22:54;9.07;;;7.10;;
58260;SDS011;44058;52.898;6.502;2024-02-26T05:25:21;9.48;;;7.47;;
58260;SDS011;44058;52.898;6.502;2024-02-26T05:27:50;9.95;;;6.45;;
58260;SDS011;44058;52.898;6.502;2024-02-26T05:30:19;10.40;;;7.35;;
58260;SDS011;44058;52.898;6.502;2024-02-26T05:32:46;9.20;;;6.35;;
58260;SDS011;44058;52.898;6.502;2024-02-26T05:35:13;6.93;;;5.75;;
58260;SDS011;44058;52.898;6.502;2024-02-26T05:37:41;8.65;;;6.22;;
58260;SDS011;44058;52.898;6.502;2024-02-26T05:40:08;8.48;;;5.85;;
58260;SDS011;44058;52.898;6.502;2024-02-26T05:42:35;8.82;;;6.07;;
58260;SDS011;44058;52.898;6.502;2024-02-26T05:45:02;6.97;;;5.35;;
58260;SDS011;44058;52.898;6.502;2024-02-26T05:47:33;6.65;;;5.40;;
58260;SDS011;44058;52.898;6.502;2024-02-26T05:50:00;6.38;;;4.97;;
58260;SDS011;44058;52.898;6.502;2024-02-26T05:52:27;7.10;;;5.28;;
58260;SDS011;44058;52.898;6.502;2024-02-26T05:54:55;8.43;;;5.30;;
58260;SDS011;44058;52.898;6.502;2024-02-26T05:57:22;7.15;;;4.78;;
58260;SDS011;44058;52.898;6.502;2024-02-26T05:59:51;5.88;;;4.60;;
58260;SDS011;44058;52.898;6.502;2024-02-26T06:02:18;6.53;;;5.00;;
58260;SDS011;44058;52.898;6.502;2024-02-26T06:04:46;7.47;;;5.22;;
58260;SDS011;44058;52.898;6.502;2024-02-26T06:07:14;7.15;;;4.82;;
58260;SDS011;44058;52.898;6.502;2024-02-26T06:09:41;6.88;;;4.90;;
58260;SDS011;44058;52.898;6.502;2024-02-26T06:12:08;7.68;;;4.93;;
58260;SDS011;44058;52.898;6.502;2024-02-26T06:14:35;6.35;;;4.57;;
58260;SDS011;44058;52.898;6.502;2024-02-26T06:17:19;5.90;;;4.68;;
58260;SDS011;44058;52.898;6.502;2024-02-26T06:19:46;5.65;;;4.20;;
58260;SDS011;44058;52.898;6.502;2024-02-26T06:22:13;6.43;;;4.18;;
58260;SDS011;44058;52.898;6.502;2024-02-26T06:24:40;5.82;;;4.20;;
58260;SDS011;44058;52.898;6.502;2024-02-26T06:27:07;4.45;;;3.85;;
58260;SDS011;44058;52.898;6.502;2024-02-26T06:29:35;5.43;;;3.90;;
58260;SDS011;44058;52.898;6.502;2024-02-26T06:32:02;5.72;;;3.97;;
58260;SDS011;44058;52.898;6.502;2024-02-26T06:34:30;4.05;;;3.65;;
58260;SDS011;44058;52.898;6.502;2024-02-26T06:37:02;4.60;;;3.78;;
58260;SDS011;44058;52.898;6.502;2024-02-26T06:39:29;5.75;;;4.57;;
58260;SDS011;44058;52.898;6.502;2024-02-26T06:41:56;6.07;;;3.80;;
58260;SDS011;44058;52.898;6.502;2024-02-26T06:44:27;5.13;;;3.72;;
58260;SDS011;44058;52.898;6.502;2024-02-26T06:47:00;4.32;;;3.65;;
58260;SDS011;44058;52.898;6.502;2024-02-26T06:49:28;4.57;;;4.05;;
58260;SDS011;44058;52.898;6.502;2024-02-26T06:51:56;4.97;;;3.30;;
58260;SDS011;44058;52.898;6.502;2024-02-26T06:54:23;4.15;;;3.72;;
58260;SDS011;44058;52.898;6.502;2024-02-26T06:56:51;7.22;;;3.45;;
58260;SDS011;44058;52.898;6.502;2024-02-26T06:59:18;5.85;;;4.30;;
58260;SDS011;44058;52.898;6.502;2024-02-26T07:01:46;4.40;;;3.58;;
58260;SDS011;44058;52.898;6.502;2024-02-26T07:04:13;4.65;;;3.53;;
58260;SDS011;44058;52.898;6.502;2024-02-26T07:06:40;6.88;;;3.83;;
58260;SDS011;44058;52.898;6.502;2024-02-26T07:09:09;5.90;;;3.58;;
58260;SDS011;44058;52.898;6.502;2024-02-26T07:11:38;4.20;;;3.80;;
58260;SDS011;44058;52.898;6.502;2024-02-26T07:14:11;4.40;;;3.70;;
58260;SDS011;44058;52.898;6.502;2024-02-26T07:16:39;5.93;;;3.85;;
58260;SDS011;44058;52.898;6.502;2024-02-26T07:19:06;5.13;;;3.83;;
58260;SDS011;44058;52.898;6.502;2024-02-26T07:21:41;7.32;;;3.72;;
58260;SDS011;44058;52.898;6.502;2024-02-26T07:24:08;4.53;;;4.00;;
58260;SDS011;44058;52.898;6.502;2024-02-26T07:26:35;4.22;;;3.83;;
58260;SDS011;44058;52.898;6.502;2024-02-26T07:29:02;4.75;;;3.75;;
58260;SDS011;44058;52.898;6.502;2024-02-26T07:31:30;4.43;;;3.50;;
58260;SDS011;44058;52.898;6.502;2024-02-26T07:33:57;4.90;;;3.67;;
58260;SDS011;44058;52.898;6.502;2024-02-26T07:36:24;4.88;;;3.80;;
58260;SDS011;44058;52.898;6.502;2024-02-26T07:39:00;4.38;;;3.95;;
58260;SDS011;44058;52.898;6.502;2024-02-26T07:41:29;5.95;;;3.90;;
58260;SDS011;44058;52.898;6.502;2024-02-26T07:43:56;4.80;;;4.07;;
58260;SDS011;44058;52.898;6.502;2024-02-26T07:46:23;3.88;;;3.47;;
58260;SDS011;44058;52.898;6.502;2024-02-26T07:48:52;4.53;;;3.65;;
58260;SDS011;44058;52.898;6.502;2024-02-26T07:51:21;4.68;;;3.63;;
58260;SDS011;44058;52.898;6.502;2024-02-26T07:53:49;4.43;;;3.92;;
58260;SDS011;44058;52.898;6.502;2024-02-26T07:56:38;4.97;;;3.97;;
58260;SDS011;44058;52.898;6.502;2024-02-26T07:59:05;4.97;;;4.00;;
58260;SDS011;44058;52.898;6.502;2024-02-26T08:01:32;6.07;;;3.50;;
58260;SDS011;44058;52.898;6.502;2024-02-26T08:04:00;4.93;;;4.25;;
58260;SDS011;44058;52.898;6.502;2024-02-26T08:06:27;4.70;;;3.83;;
58260;SDS011;44058;52.898;6.502;2024-02-26T08:08:54;4.70;;;3.47;;
58260;SDS011;44058;52.898;6.502;2024-02-26T08:11:22;5.30;;;4.40;;
58260;SDS011;44058;52.898;6.502;2024-02-26T08:13:51;4.82;;;3.85;;
58260;SDS011;44058;52.898;6.502;2024-02-26T08:16:18;4.53;;;3.85;;
58260;SDS011;44058;52.898;6.502;2024-02-26T08:18:45;6.40;;;3.50;;
58260;SDS011;44058;52.898;6.502;2024-02-26T08:21:12;4.32;;;3.92;;
58260;SDS011;44058;52.898;6.502;2024-02-26T08:23:40;4.68;;;4.13;;
58260;SDS011;44058;52.898;6.502;2024-02-26T08:26:07;5.13;;;3.90;;
58260;SDS011;44058;52.898;6.502;2024-02-26T08:31:03;4.30;;;3.85;;
58260;SDS011;44058;52.898;6.502;2024-02-26T08:33:31;4.45;;;3.67;;
58260;SDS011;44058;52.898;6.502;2024-02-26T08:36:03;5.37;;;4.17;;
58260;SDS011;44058;52.898;6.502;2024-02-26T08:38:30;4.93;;;4.05;;
58260;SDS011;44058;52.898;6.502;2024-02-26T08:40:57;4.97;;;4.03;;
58260;SDS011;44058;52.898;6.502;2024-02-26T08:43:25;4.97;;;4.20;;
58260;SDS011;44058;52.898;6.502;2024-02-26T08:45:52;4.68;;;4.18;;
58260;SDS011;44058;52.898;6.502;2024-02-26T08:48:28;5.18;;;4.00;;
58260;SDS011;44058;52.898;6.502;2024-02-26T08:50:54;4.47;;;4.07;;
58260;SDS011;44058;52.898;6.502;2024-02-26T08:53:21;5.70;;;4.20;;
58260;SDS011;44058;52.898;6.502;2024-02-26T08:55:48;5.07;;;4.20;;
58260;SDS011;44058;52.898;6.502;2024-02-26T08:58:14;6.00;;;4.47;;
58260;SDS011;44058;52.898;6.502;2024-02-26T09:00:40;4.47;;;4.07;;
58260;SDS011;44058;52.898;6.502;2024-02-26T09:03:06;4.57;;;4.13;;
58260;SDS011;44058;52.898;6.502;2024-02-26T09:05:32;4.65;;;4.22;;
58260;SDS011;44058;52.898;6.502;2024-02-26T09:08:00;4.60;;;4.20;;
58260;SDS011;44058;52.898;6.502;2024-02-26T09:10:27;5.75;;;4.65;;
58260;SDS011;44058;52.898;6.502;2024-02-26T09:12:55;5.80;;;4.60;;
58260;SDS011;44058;52.898;6.502;2024-02-26T09:15:25;4.47;;;4.07;;
58260;SDS011;44058;52.898;6.502;2024-02-26T09:17:54;5.40;;;4.35;;
58260;SDS011;44058;52.898;6.502;2024-02-26T09:20:22;4.47;;;3.83;;
58260;SDS011;44058;52.898;6.502;2024-02-26T09:22:51;6.15;;;4.57;;
58260;SDS011;44058;52.898;6.502;2024-02-26T09:25:20;6.25;;;4.40;;
58260;SDS011;44058;52.898;6.502;2024-02-26T09:27:46;5.50;;;4.35;;
58260;SDS011;44058;52.898;6.502;2024-02-26T09:30:13;5.88;;;4.97;;
58260;SDS011;44058;52.898;6.502;2024-02-26T09:32:40;5.38;;;4.55;;
58260;SDS011;44058;52.898;6.502;2024-02-26T09:35:07;5.38;;;4.40;;
58260;SDS011;44058;52.898;6.502;2024-02-26T09:37:33;5.57;;;4.68;;
58260;SDS011;44058;52.898;6.502;2024-02-26T09:40:02;5.53;;;4.53;;
58260;SDS011;44058;52.898;6.502;2024-02-26T09:42:29;6.07;;;4.60;;
58260;SDS011;44058;52.898;6.502;2024-02-26T09:44:57;5.50;;;4.30;;
58260;SDS011;44058;52.898;6.502;2024-02-26T09:47:28;5.90;;;5.03;;
58260;SDS011;44058;52.898;6.502;2024-02-26T09:49:56;5.93;;;4.90;;
58260;SDS011;44058;52.898;6.502;2024-02-26T09:52:24;6.38;;;4.45;;
58260;SDS011;44058;52.898;6.502;2024-02-26T09:54:53;5.32;;;4.60;;
58260;SDS011;44058;52.898;6.502;2024-02-26T09:57:21;7.60;;;4.53;;
58260;SDS011;44058;52.898;6.502;2024-02-26T09:59:53;4.70;;;4.20;;
58260;SDS011;44058;52.898;6.502;2024-02-26T10:02:21;5.35;;;4.60;;
58260;SDS011;44058;52.898;6.502;2024-02-26T10:04:51;5.38;;;4.47;;
58260;SDS011;44058;52.898;6.502;2024-02-26T10:07:22;5.65;;;4.60;;
58260;SDS011;44058;52.898;6.502;2024-02-26T10:09:51;5.90;;;4.32;;
58260;SDS011;44058;52.898;6.502;2024-02-26T10:12:18;4.82;;;3.97;;
58260;SDS011;44058;52.898;6.502;2024-02-26T10:14:46;7.07;;;4.57;;
58260;SDS011;44058;52.898;6.502;2024-02-26T10:17:13;5.00;;;4.50;;
58260;SDS011;44058;52.898;6.502;2024-02-26T10:19:40;5.03;;;4.38;;
58260;SDS011;44058;52.898;6.502;2024-02-26T10:22:07;5.03;;;4.10;;
58260;SDS011;44058;52.898;6.502;2024-02-26T10:24:35;4.93;;;4.20;;
58260;SDS011;44058;52.898;6.502;2024-02-26T10:27:02;4.63;;;3.83;;
58260;SDS011;44058;52.898;6.502;2024-02-26T10:29:29;5.55;;;4.10;;
58260;SDS011;44058;52.898;6.502;2024-02-26T10:31:57;5.97;;;4.25;;
58260;SDS011;44058;52.898;6.502;2024-02-26T10:34:26;5.45;;;4.82;;
58260;SDS011;44058;52.898;6.502;2024-02-26T10:36:54;6.57;;;4.17;;
58260;SDS011;44058;52.898;6.502;2024-02-26T10:39:22;4.60;;;4.15;;
58260;SDS011;44058;52.898;6.502;2024-02-26T10:41:51;6.30;;;4.22;;
58260;SDS011;44058;52.898;6.502;2024-02-26T10:44:21;4.90;;;4.05;;
58260;SDS011;44058;52.898;6.502;2024-02-26T10:46:51;5.63;;;3.85;;
58260;SDS011;44058;52.898;6.502;2024-02-26T10:49:18;5.28;;;4.10;;
58260;SDS011;44058;52.898;6.502;2024-02-26T10:51:49;5.78;;;3.88;;
58260;SDS011;44058;52.898;6.502;2024-02-26T10:54:17;5.05;;;3.95;;
58260;SDS011;44058;52.898;6.502;2024-02-26T10:56:45;4.63;;;4.00;;
58260;SDS011;44058;52.898;6.502;2024-02-26T10:59:13;4.15;;;3.75;;
58260;SDS011;44058;52.898;6.502;2024-02-26T11:01:41;4.40;;;4.00;;
58260;SDS011;44058;52.898;6.502;2024-02-26T11:04:12;6.38;;;3.92;;
58260;SDS011;44058;52.898;6.502;2024-02-26T11:06:40;4.38;;;3.90;;
58260;SDS011;44058;52.898;6.502;2024-02-26T11:09:07;3.92;;;3.33;;
58260;SDS011;44058;52.898;6.502;2024-02-26T11:11:35;4.25;;;3.55;;
58260;SDS011;44058;52.898;6.502;2024-02-26T11:14:02;4.20;;;3.22;;
58260;SDS011;44058;52.898;6.502;2024-02-26T11:16:30;4.22;;;3.53;;
58260;SDS011;44058;52.898;6.502;2024-02-26T11:18:58;4.72;;;3.50;;
58260;SDS011;44058;52.898;6.502;2024-02-26T11:21:27;3.80;;;3.17;;
58260;SDS011;44058;52.898;6.502;2024-02-26T11:24:08;3.58;;;3.22;;
58260;SDS011;44058;52.898;6.502;2024-02-26T11:26:36;3.78;;;3.40;;
58260;SDS011;44058;52.898;6.502;2024-02-26T11:29:05;4.57;;;3.33;;
58260;SDS011;44058;52.898;6.502;2024-02-26T11:31:36;3.63;;;2.97;;
58260;SDS011;44058;52.898;6.502;2024-02-26T11:34:04;3.30;;;3.00;;
58260;SDS011;44058;52.898;6.502;2024-02-26T11:36:31;3.70;;;3.10;;
58260;SDS011;44058;52.898;6.502;2024-02-26T11:38:58;4.00;;;3.05;;
58260;SDS011;44058;52.898;6.502;2024-02-26T11:41:25;3.20;;;2.90;;
58260;SDS011;44058;52.898;6.502;2024-02-26T11:43:53;4.18;;;3.40;;
58260;SDS011;44058;52.898;6.502;2024-02-26T11:46:25;3.95;;;2.95;;
58260;SDS011;44058;52.898;6.502;2024-02-26T11:48:56;4.15;;;3.20;;
58260;SDS011;44058;52.898;6.502;2024-02-26T11:51:26;4.00;;;2.75;;
58260;SDS011;44058;52.898;6.502;2024-02-26T11:56:24;3.08;;;2.65;;
58260;SDS011;44058;52.898;6.502;2024-02-26T11:58:53;2.90;;;2.35;;
58260;SDS011;44058;52.898;6.502;2024-02-26T12:04:22;4.20;;;3.00;;
58260;SDS011;44058;52.898;6.502;2024-02-26T12:06:55;3.08;;;2.50;;
58260;SDS011;44058;52.898;6.502;2024-02-26T12:12:22;2.80;;;2.50;;
58260;SDS011;44058;52.898;6.502;2024-02-26T12:14:53;2.92;;;2.63;;
58260;SDS011;44058;52.898;6.502;2024-02-26T12:17:23;3.78;;;2.75;;
58260;SDS011;44058;52.898;6.502;2024-02-26T12:19:56;3.80;;;2.50;;
58260;SDS011;44058;52.898;6.502;2024-02-26T12:25:03;3.50;;;2.70;;
58260;SDS011;44058;52.898;6.502;2024-02-26T12:27:31;3.10;;;2.80;;
58260;SDS011;44058;52.898;6.502;2024-02-26T12:29:59;3.25;;;2.83;;
58260;SDS011;44058;52.898;6.502;2024-02-26T12:32:26;3.30;;;2.85;;
58260;SDS011;44058;52.898;6.502;2024-02-26T12:34:54;5.40;;;3.17;;
58260;SDS011;44058;52.898;6.502;2024-02-26T12:37:22;3.25;;;2.78;;
58260;SDS011;44058;52.898;6.502;2024-02-26T12:42:18;2.53;;;2.33;;
58260;SDS011;44058;52.898;6.502;2024-02-26T12:44:46;5.38;;;2.85;;
58260;SDS011;44058;52.898;6.502;2024-02-26T12:47:14;5.18;;;3.08;;
58260;SDS011;44058;52.898;6.502;2024-02-26T12:49:43;3.13;;;2.83;;
58260;SDS011;44058;52.898;6.502;2024-02-26T12:52:13;4.00;;;2.70;;
58260;SDS011;44058;52.898;6.502;2024-02-26T12:54:41;4.00;;;3.00;;
58260;SDS011;44058;52.898;6.502;2024-02-26T12:57:10;3.75;;;3.28;;
58260;SDS011;44058;52.898;6.502;2024-02-26T12:59:37;4.75;;;3.40;;
58260;SDS011;44058;52.898;6.502;2024-02-26T13:02:05;4.20;;;3.40;;
58260;SDS011;44058;52.898;6.502;2024-02-26T13:04:32;3.90;;;3.47;;
58260;SDS011;44058;52.898;6.502;2024-02-26T13:07:02;4.00;;;3.45;;
58260;SDS011;44058;52.898;6.502;2024-02-26T13:09:33;4.82;;;3.78;;
58260;SDS011;44058;52.898;6.502;2024-02-26T13:12:04;7.40;;;4.15;;
58260;SDS011;44058;52.898;6.502;2024-02-26T13:14:32;4.45;;;3.80;;
58260;SDS011;44058;52.898;6.502;2024-02-26T13:17:03;6.50;;;3.90;;
58260;SDS011;44058;52.898;6.502;2024-02-26T13:19:30;6.57;;;4.60;;
58260;SDS011;44058;52.898;6.502;2024-02-26T13:22:04;5.05;;;4.55;;
58260;SDS011;44058;52.898;6.502;2024-02-26T13:24:35;7.22;;;4.13;;
58260;SDS011;44058;52.898;6.502;2024-02-26T13:27:03;4.88;;;4.10;;
58260;SDS011;44058;52.898;6.502;2024-02-26T13:29:31;5.38;;;4.07;;
58260;SDS011;44058;52.898;6.502;2024-02-26T13:31:59;5.30;;;4.43;;
58260;SDS011;44058;52.898;6.502;2024-02-26T13:34:26;7.20;;;4.25;;
58260;SDS011;44058;52.898;6.502;2024-02-26T13:36:54;6.03;;;4.32;;
58260;SDS011;44058;52.898;6.502;2024-02-26T13:39:22;5.75;;;4.80;;
58260;SDS011;44058;52.898;6.502;2024-02-26T13:41:52;7.00;;;5.00;;
58260;SDS011;44058;52.898;6.502;2024-02-26T13:44:22;6.32;;;4.90;;
58260;SDS011;44058;52.898;6.502;2024-02-26T13:46:51;9.80;;;5.00;;
58260;SDS011;44058;52.898;6.502;2024-02-26T13:49:19;6.22;;;5.35;;
58260;SDS011;44058;52.898;6.502;2024-02-26T13:51:46;6.95;;;5.15;;
58260;SDS011;44058;52.898;6.502;2024-02-26T13:54:13;6.38;;;4.85;;
58260;SDS011;44058;52.898;6.502;2024-02-26T13:56:40;6.40;;;5.50;;
58260;SDS011;44058;52.898;6.502;2024-02-26T13:59:08;8.55;;;5.00;;
58260;SDS011;44058;52.898;6.502;2024-02-26T14:01:35;6.97;;;5.05;;
58260;SDS011;44058;52.898;6.502;2024-02-26T14:04:02;6.45;;;5.38;;
58260;SDS011;44058;52.898;6.502;2024-02-26T14:06:30;6.18;;;5.50;;
58260;SDS011;44058;52.898;6.502;2024-02-26T14:08:58;7.40;;;5.47;;
58260;SDS011;44058;52.898;6.502;2024-02-26T14:11:25;7.18;;;5.70;;
58260;SDS011;44058;52.898;6.502;2024-02-26T14:13:55;6.30;;;5.55;;
58260;SDS011;44058;52.898;6.502;2024-02-26T14:16:22;7.30;;;5.25;;
58260;SDS011;44058;52.898;6.502;2024-02-26T14:18:50;7.10;;;5.60;;
58260;SDS011;44058;52.898;6.502;2024-02-26T14:21:17;7.07;;;5.03;;
58260;SDS011;44058;52.898;6.502;2024-02-26T14:23:44;6.47;;;4.90;;
58260;SDS011;44058;52.898;6.502;2024-02-26T14:26:11;7.07;;;5.70;;
58260;SDS011;44058;52.898;6.502;2024-02-26T14:28:38;6.70;;;5.07;;
58260;SDS011;44058;52.898;6.502;2024-02-26T14:31:05;8.52;;;5.70;;
58260;SDS011;44058;52.898;6.502;2024-02-26T14:33:37;6.45;;;5.20;;
58260;SDS011;44058;52.898;6.502;2024-02-26T14:36:05;9.30;;;6.47;;
58260;SDS011;44058;52.898;6.502;2024-02-26T14:38:33;9.75;;;7.13;;
58260;SDS011;44058;52.898;6.502;2024-02-26T14:40:59;8.60;;;6.50;;
58260;SDS011;44058;52.898;6.502;2024-02-26T14:43:26;8.82;;;6.45;;
58260;SDS011;44058;52.898;6.502;2024-02-26T14:45:53;10.40;;;6.97;;
58260;SDS011;44058;52.898;6.502;2024-02-26T14:48:21;11.07;;;7.25;;
58260;SDS011;44058;52.898;6.502;2024-02-26T14:50:49;9.23;;;6.97;;
58260;SDS011;44058;52.898;6.502;2024-02-26T14:53:17;10.10;;;7.57;;
58260;SDS011;44058;52.898;6.502;2024-02-26T14:55:44;9.13;;;6.78;;
58260;SDS011;44058;52.898;6.502;2024-02-26T14:58:11;10.93;;;7.78;;
58260;SDS011;44058;52.898;6.502;2024-02-26T15:00:38;8.93;;;7.15;;
58260;SDS011;44058;52.898;6.502;2024-02-26T15:03:05;10.77;;;7.28;;
58260;SDS011;44058;52.898;6.502;2024-02-26T15:05:32;11.45;;;6.95;;